Time;durP1;ratioP1;P1;durP2;ratioP2;P2;SDS_P1;SDS_P2;PMS_P1;PMS_P2;Temp;Humidity;BMP_temperature;BMP_pressure;BME280_temperature;BME280_humidity;BME280_pressure;Samples;Min_cycle;Max_cycle;Signal;HPM_P1;HPM_P2
2024/03/11 00:02:39;;;;;;;;;;;2.60;99.90;;;;;;21042279;28;20292;-81
2024/03/11 00:12:40;;;;;;;;;;;2.50;99.90;;;;;;21035685;28;19947;-81
2024/03/11 00:22:41;;;;;;;;;;;2.90;99.90;;;;;;21031906;28;19924;-81
2024/03/11 00:32:45;;;;;;;;;;;3.00;99.90;;;;;;21030778;28;19917;-81
2024/03/11 00:42:45;;;;;;;;;;;2.80;99.90;;;;;;21034977;28;20436;-82
2024/03/11 00:52:47;;;;;;;;;;;2.70;99.90;;;;;;21023302;28;19917;-82
2024/03/11 01:02:51;;;;;;;;;;;2.80;99.90;;;;;;21024372;28;19916;-81
2024/03/11 01:12:52;;;;;;;;;;;3.00;99.90;;;;;;21068137;28;20046;-82
2024/03/11 01:22:53;;;;;;;;;;;2.90;99.90;;;;;;21086891;28;19916;-80
2024/03/11 01:32:53;;;;;;;;;;;3.10;99.90;;;;;;21088624;28;19914;-78
2024/03/11 01:42:54;;;;;;;;;;;3.00;99.90;;;;;;21096648;28;19920;-78
2024/03/11 01:53:00;;;;;;;;;;;3.00;99.90;;;;;;21078667;28;19913;-80
2024/03/11 02:03:01;;;;;;;;;;;2.50;99.90;;;;;;21100926;28;19975;-82
2024/03/11 02:13:02;;;;;;;;;;;2.30;99.90;;;;;;21102175;28;19923;-81
2024/03/11 02:23:04;;;;;;;;;;;2.30;99.90;;;;;;21098345;28;20263;-81
2024/03/11 02:33:05;;;;;;;;;;;2.30;99.90;;;;;;21096223;28;19912;-78
2024/03/11 02:43:06;;;;;;;;;;;2.20;99.90;;;;;;21103725;28;19976;-82
2024/03/11 02:53:08;;;;;;;;;;;2.30;99.90;;;;;;21096056;28;19988;-81
2024/03/11 03:03:09;;;;;;;;;;;2.20;99.90;;;;;;21091946;28;19916;-81
2024/03/11 03:13:09;;;;;;;;;;;1.30;99.90;;;;;;21092925;28;20007;-81
2024/03/11 03:23:11;;;;;;;;;;;1.90;99.90;;;;;;21093173;28;20378;-81
2024/03/11 03:33:11;;;;;;;;;;;2.20;99.90;;;;;;21097555;28;19912;-80
2024/03/11 03:43:12;;;;;;;;;;;2.20;99.90;;;;;;21095677;28;19927;-81
2024/03/11 03:53:12;;;;;;;;;;;2.10;99.90;;;;;;21081861;28;19920;-81
2024/03/11 04:03:13;;;;;;;;;;;2.00;99.90;;;;;;21099451;28;19971;-81
2024/03/11 04:13:14;;;;;;;;;;;2.00;99.90;;;;;;21085948;28;19985;-78
2024/03/11 04:23:15;;;;;;;;;;;1.80;99.90;;;;;;21081489;28;19926;-81
2024/03/11 04:33:17;;;;;;;;;;;2.00;99.90;;;;;;21082177;28;19916;-81
2024/03/11 04:43:18;;;;;;;;;;;1.90;99.90;;;;;;21098148;28;19916;-79
2024/03/11 04:53:18;;;;;;;;;;;1.80;99.90;;;;;;21091404;28;19912;-80
2024/03/11 05:03:19;;;;;;;;;;;1.90;99.90;;;;;;21106948;28;19951;-82
2024/03/11 05:13:21;;;;;;;;;;;1.90;99.90;;;;;;21098300;28;19924;-81
2024/03/11 05:23:21;;;;;;;;;;;1.70;99.90;;;;;;21076970;28;19916;-81
2024/03/11 05:33:22;;;;;;;;;;;1.90;99.90;;;;;;21089294;28;20439;-80
2024/03/11 05:43:23;;;;;;;;;;;2.10;99.90;;;;;;21050694;28;19916;-81
2024/03/11 05:53:26;;;;;;;;;;;2.20;99.90;;;;;;21079892;28;20010;-81
2024/03/11 06:03:27;;;;;;;;;;;2.20;99.90;;;;;;21107469;28;19920;-80
2024/03/11 06:13:28;;;;;;;;;;;2.20;99.90;;;;;;21101192;28;20147;-82
2024/03/11 06:23:30;;;;;;;;;;;2.20;99.90;;;;;;21104023;28;19924;-80
2024/03/11 06:33:31;;;;;;;;;;;2.10;99.90;;;;;;21102076;28;19912;-81
2024/03/11 06:43:32;;;;;;;;;;;1.90;99.90;;;;;;21096071;28;20374;-79
2024/03/11 06:53:33;;;;;;;;;;;2.20;99.90;;;;;;21087731;28;19919;-80
2024/03/11 07:03:35;;;;;;;;;;;2.50;99.90;;;;;;21086779;28;19916;-80
2024/03/11 07:13:35;;;;;;;;;;;2.90;99.90;;;;;;21096081;28;20012;-81
2024/03/11 07:23:36;;;;;;;;;;;3.30;99.90;;;;;;21103323;28;19919;-81
2024/03/11 07:33:39;;;;;;;;;;;3.40;99.90;;;;;;21096337;28;19980;-80
2024/03/11 07:43:40;;;;;;;;;;;4.00;99.90;;;;;;21091231;28;19919;-79
2024/03/11 07:53:40;;;;;;;;;;;4.90;99.90;;;;;;21090758;28;20008;-80
2024/03/11 08:03:41;;;;;;;;;;;5.40;99.90;;;;;;21074715;28;19922;-80
2024/03/11 08:13:42;;;;;;;;;;;6.10;99.90;;;;;;21087181;28;19967;-80
2024/03/11 08:23:42;;;;;;;;;;;6.40;99.90;;;;;;21093440;28;19927;-77
2024/03/11 08:33:43;;;;;;;;;;;6.80;99.90;;;;;;21100094;28;19918;-80
2024/03/11 08:43:44;;;;;;;;;;;6.50;99.90;;;;;;21113183;28;19928;-79
2024/03/11 08:53:45;;;;;;;;;;;6.90;99.90;;;;;;21153980;28;19927;-77
2024/03/11 09:03:45;;;;;;;;;;;5.90;99.90;;;;;;21176924;28;19927;-78
2024/03/11 09:13:46;;;;;;;;;;;6.10;99.90;;;;;;21148418;28;20016;-79
2024/03/11 09:23:47;;;;;;;;;;;6.30;99.90;;;;;;21122994;28;20352;-80
2024/03/11 09:33:48;;;;;;;;;;;6.30;99.90;;;;;;21120872;28;20020;-80
2024/03/11 09:43:50;;;;;;;;;;;6.70;99.90;;;;;;21120869;28;19963;-80
2024/03/11 09:53:58;;;;;;;;;;;7.30;99.90;;;;;;21122577;28;19917;-78
2024/03/11 10:04:00;;;;;;;;;;;8.00;99.90;;;;;;21112320;28;20260;-79
2024/03/11 10:14:17;;;;;;;;;;;8.80;99.90;;;;;;21100751;28;20018;-80
2024/03/11 10:24:18;;;;;;;;;;;9.20;99.90;;;;;;21102797;28;20064;-78
2024/03/11 10:34:21;;;;;;;;;;;10.00;99.90;;;;;;21112416;28;19912;-80
2024/03/11 10:44:29;;;;;;;;;;;10.60;99.90;;;;;;21114476;28;19916;-79
2024/03/11 10:54:29;;;;;;;;;;;12.10;99.90;;;;;;21106022;28;19923;-79
2024/03/11 11:04:33;;;;;;;;;;;13.70;99.90;;;;;;21112399;28;19920;-80
2024/03/11 11:14:34;;;;;;;;;;;14.20;99.90;;;;;;21101830;28;19974;-77
2024/03/11 11:24:39;;;;;;;;;;;14.00;99.90;;;;;;21095544;28;19916;-78
2024/03/11 11:34:46;;;;;;;;;;;13.00;99.90;;;;;;21082882;28;19912;-76
2024/03/11 11:44:49;;;;;;;;;;;12.50;99.90;;;;;;21088838;28;19999;-77
2024/03/11 11:54:51;;;;;;;;;;;12.80;99.90;;;;;;21079580;28;19924;-78
2024/03/11 12:05:01;;;;;;;;;;;13.80;99.90;;;;;;21077838;28;19923;-79
2024/03/11 12:15:02;;;;;;;;;;;15.70;99.90;;;;;;21086215;28;19969;-79
2024/03/11 12:25:03;;;;;;;;;;;15.40;99.90;;;;;;21102699;28;20014;-78
2024/03/11 12:35:05;;;;;;;;;;;14.70;99.90;;;;;;21090936;28;19912;-79
2024/03/11 12:45:09;;;;;;;;;;;14.50;99.90;;;;;;21086093;28;20383;-77
2024/03/11 12:55:11;;;;;;;;;;;15.00;99.90;;;;;;21093649;28;19948;-79
2024/03/11 13:05:16;;;;;;;;;;;15.30;99.90;;;;;;21088851;28;19916;-77
2024/03/11 13:15:18;;;;;;;;;;;13.20;99.90;;;;;;21080415;28;19916;-77
2024/03/11 13:25:19;;;;;;;;;;;13.10;99.90;;;;;;21111360;28;20016;-79
2024/03/11 13:35:20;;;;;;;;;;;13.20;99.90;;;;;;21115637;28;19912;-78
2024/03/11 13:45:21;;;;;;;;;;;15.00;99.90;;;;;;21086350;28;19924;-78
2024/03/11 13:55:21;;;;;;;;;;;13.80;99.90;;;;;;21101200;28;19946;-81
2024/03/11 14:05:25;;;;;;;;;;;13.60;99.90;;;;;;21113853;28;19916;-81
2024/03/11 14:15:26;;;;;;;;;;;13.80;99.90;;;;;;21102327;28;19961;-79
2024/03/11 14:25:30;;;;;;;;;;;13.10;99.90;;;;;;21110571;28;19916;-81
2024/03/11 14:35:32;;;;;;;;;;;14.00;99.90;;;;;;21104793;28;19987;-80
2024/03/11 14:45:33;;;;;;;;;;;15.00;99.90;;;;;;21098450;28;19916;-81
2024/03/11 14:55:41;;;;;;;;;;;14.20;99.90;;;;;;21092104;28;19939;-82
2024/03/11 15:05:45;;;;;;;;;;;14.10;99.90;;;;;;21108543;28;20371;-81
2024/03/11 15:15:46;;;;;;;;;;;13.60;99.90;;;;;;21099122;28;19916;-81
2024/03/11 15:25:47;;;;;;;;;;;13.10;99.90;;;;;;21081886;28;19923;-80
2024/03/11 15:35:50;;;;;;;;;;;13.00;99.90;;;;;;21096743;28;19919;-81
2024/03/11 15:45:51;;;;;;;;;;;12.40;99.90;;;;;;21103263;28;19983;-77
2024/03/11 15:55:53;;;;;;;;;;;12.30;99.90;;;;;;21075612;28;19916;-79
2024/03/11 16:05:55;;;;;;;;;;;12.50;99.90;;;;;;21073937;28;19916;-80
2024/03/11 16:15:56;;;;;;;;;;;12.50;99.90;;;;;;21090206;28;19916;-79
2024/03/11 16:25:59;;;;;;;;;;;12.10;99.90;;;;;;21101032;28;19916;-78
2024/03/11 16:36:01;;;;;;;;;;;11.70;99.90;;;;;;21105701;28;19947;-79
2024/03/11 16:46:03;;;;;;;;;;;11.60;99.90;;;;;;21106572;28;19961;-79
2024/03/11 16:56:04;;;;;;;;;;;11.60;99.90;;;;;;21073791;28;20423;-77
2024/03/11 17:06:07;;;;;;;;;;;11.20;99.90;;;;;;21086729;28;19966;-80
2024/03/11 17:16:08;;;;;;;;;;;11.00;99.90;;;;;;21107248;28;19927;-79
2024/03/11 17:26:09;;;;;;;;;;;10.70;99.90;;;;;;21100462;28;19916;-79
2024/03/11 17:36:11;;;;;;;;;;;10.00;99.90;;;;;;21111239;28;19919;-79
2024/03/11 17:46:11;;;;;;;;;;;9.10;99.90;;;;;;21117377;28;19920;-80
2024/03/11 17:56:12;;;;;;;;;;;8.50;99.90;;;;;;21111437;28;19919;-80
2024/03/11 18:06:14;;;;;;;;;;;8.50;99.90;;;;;;21088889;28;19916;-76
2024/03/11 18:16:14;;;;;;;;;;;8.50;99.90;;;;;;21061031;28;19952;-78
2024/03/11 18:26:17;;;;;;;;;;;8.60;99.90;;;;;;21063832;28;19916;-78
2024/03/11 18:36:21;;;;;;;;;;;8.30;99.90;;;;;;21068944;28;20395;-78
2024/03/11 18:46:22;;;;;;;;;;;7.80;99.90;;;;;;21080562;28;19927;-78
2024/03/11 18:56:24;;;;;;;;;;;7.20;99.90;;;;;;21033769;28;19912;-77
2024/03/11 19:06:24;;;;;;;;;;;6.70;99.90;;;;;;21060570;28;19916;-77
2024/03/11 19:16:25;;;;;;;;;;;6.80;99.90;;;;;;21064937;28;19923;-78
2024/03/11 19:26:26;;;;;;;;;;;6.50;99.90;;;;;;21041495;28;19916;-78
2024/03/11 19:36:45;;;;;;;;;;;6.60;99.90;;;;;;21054253;28;19913;-77
2024/03/11 19:46:45;;;;;;;;;;;6.90;99.90;;;;;;21049532;28;20540;-78
2024/03/11 19:56:55;;;;;;;;;;;7.30;99.90;;;;;;21093317;28;19936;-78
2024/03/11 20:06:58;;;;;;;;;;;7.40;99.90;;;;;;21101412;28;19916;-78
2024/03/11 20:16:59;;;;;;;;;;;7.70;99.90;;;;;;21092117;28;19916;-76
2024/03/11 20:27:06;;;;;;;;;;;7.80;99.90;;;;;;21096350;28;20337;-77
2024/03/11 20:37:09;;;;;;;;;;;7.70;99.90;;;;;;21111817;28;19912;-77
2024/03/11 20:47:10;;;;;;;;;;;7.70;99.90;;;;;;21122085;28;19923;-78
2024/03/11 20:57:11;;;;;;;;;;;7.60;99.90;;;;;;21110054;28;20332;-78
2024/03/11 21:07:11;;;;;;;;;;;7.50;99.90;;;;;;21067221;28;19931;-79
2024/03/11 21:17:12;;;;;;;;;;;7.10;99.90;;;;;;21051835;28;19999;-78
2024/03/11 21:27:23;;;;;;;;;;;6.60;99.90;;;;;;21054838;28;20432;-78
2024/03/11 21:37:24;;;;;;;;;;;6.50;99.90;;;;;;21052413;28;20368;-77
2024/03/11 21:47:24;;;;;;;;;;;6.30;99.90;;;;;;21042071;28;19924;-78
2024/03/11 21:57:25;;;;;;;;;;;6.20;99.90;;;;;;21054639;28;19975;-78
2024/03/11 22:07:27;;;;;;;;;;;5.80;99.90;;;;;;21053434;28;19916;-79
2024/03/11 22:17:28;;;;;;;;;;;5.90;99.90;;;;;;21037166;28;19916;-77
2024/03/11 22:27:28;;;;;;;;;;;5.50;99.90;;;;;;21027723;28;19916;-78
2024/03/11 22:37:29;;;;;;;;;;;5.10;99.90;;;;;;21032697;28;20326;-80
2024/03/11 22:47:30;;;;;;;;;;;5.00;99.90;;;;;;21032330;28;19927;-79
2024/03/11 22:57:30;;;;;;;;;;;4.80;99.90;;;;;;21034893;28;19947;-79
2024/03/11 23:07:31;;;;;;;;;;;4.70;99.90;;;;;;21038828;28;19966;-79
2024/03/11 23:17:32;;;;;;;;;;;4.70;99.90;;;;;;21031868;28;19972;-80
2024/03/11 23:27:32;;;;;;;;;;;4.80;99.90;;;;;;21037637;28;19916;-80
2024/03/11 23:37:33;;;;;;;;;;;4.90;99.90;;;;;;21032863;28;19972;-80
2024/03/11 23:47:34;;;;;;;;;;;4.90;99.90;;;;;;21050195;28;20019;-80
2024/03/11 23:57:35;;;;;;;;;;;5.10;99.90;;;;;;21050929;28;19913;-78
